createdAt,value
2018-07-28T00:00:26.407Z,92.70
2018-07-28T00:01:26.402Z,93.85
2018-07-28T00:02:26.384Z,92.99
2018-07-28T00:03:26.375Z,92.60
2018-07-28T00:04:26.362Z,92.50
2018-07-28T00:05:26.352Z,93.04
2018-07-28T00:06:26.338Z,92.85
2018-07-28T00:07:26.328Z,92.27
2018-07-28T00:08:26.322Z,92.65
2018-07-28T00:09:26.305Z,93.47
2018-07-28T00:10:26.294Z,92.65
2018-07-28T00:11:26.283Z,93.04
2018-07-28T00:12:26.271Z,92.65
2018-07-28T00:13:26.261Z,91.69
2018-07-28T00:14:26.247Z,92.12
2018-07-28T00:15:26.242Z,91.83
2018-07-28T00:16:26.225Z,92.12
2018-07-28T00:17:26.217Z,92.12
2018-07-28T00:18:26.209Z,92.32
2018-07-28T00:19:26.192Z,92.65
2018-07-28T00:20:26.183Z,92.94
2018-07-28T00:21:26.172Z,92.75
2018-07-28T00:22:26.163Z,92.85
2018-07-28T00:23:26.148Z,92.27
2018-07-28T00:24:26.136Z,92.27
2018-07-28T00:25:26.130Z,92.50
2018-07-28T00:26:26.113Z,93.37
2018-07-28T00:27:26.106Z,92.27
2018-07-28T00:28:26.091Z,92.70
2018-07-28T00:29:26.080Z,92.70
2018-07-28T00:30:26.068Z,92.02
2018-07-28T00:31:26.059Z,91.74
2018-07-28T00:32:26.050Z,92.60
2018-07-28T00:33:26.038Z,92.22
2018-07-28T00:34:26.029Z,91.35
2018-07-28T00:35:26.012Z,91.54
2018-07-28T00:38:08.520Z,92.41
2018-07-28T00:39:08.510Z,91.74
2018-07-28T00:40:08.500Z,92.60
2018-07-28T00:41:08.495Z,92.41
2018-07-28T00:42:08.476Z,92.12
2018-07-28T00:43:08.467Z,92.32
2018-07-28T00:44:08.453Z,92.50
2018-07-28T00:45:08.440Z,91.83
2018-07-28T00:46:08.429Z,92.41
2018-07-28T00:47:08.420Z,92.41
2018-07-28T00:48:08.408Z,92.32
2018-07-28T00:49:08.399Z,92.89
2018-07-28T00:50:08.385Z,92.46
2018-07-28T00:51:08.374Z,92.99
2018-07-28T00:52:08.364Z,92.36
2018-07-28T00:53:08.351Z,92.50
2018-07-28T00:54:08.338Z,92.80
2018-07-28T00:55:08.326Z,93.08
2018-07-28T00:56:08.315Z,93.08
2018-07-28T00:57:08.309Z,93.23
2018-07-28T00:58:08.294Z,93.71
2018-07-28T00:59:08.285Z,93.13
2018-07-28T01:00:08.279Z,93.43
2018-07-28T01:01:08.259Z,93.62
2018-07-28T01:02:08.247Z,92.65
2018-07-28T01:03:08.234Z,92.65
2018-07-28T01:04:08.223Z,93.52
2018-07-28T01:05:08.215Z,93.52
2018-07-28T01:06:08.203Z,93.52
2018-07-28T01:07:08.190Z,93.43
2018-07-28T01:08:08.180Z,93.43
2018-07-28T01:09:08.166Z,94.20
2018-07-28T01:10:08.157Z,93.43
2018-07-28T01:11:08.146Z,93.43
2018-07-28T01:12:08.132Z,93.81
2018-07-28T01:13:08.122Z,94.48
2018-07-28T01:14:08.110Z,94.68
2018-07-28T01:15:55.641Z,94.00
2018-07-28T01:16:55.627Z,94.29
2018-07-28T01:17:55.617Z,95.16
2018-07-28T01:18:55.603Z,94.34
2018-07-28T01:19:55.592Z,94.58
2018-07-28T01:20:55.580Z,94.00
2018-07-28T01:21:55.574Z,94.20
2018-07-28T01:22:55.563Z,94.20
2018-07-28T01:23:55.547Z,94.48
2018-07-28T01:24:55.534Z,94.20
2018-07-28T01:25:55.523Z,94.29
2018-07-28T01:26:55.513Z,94.48
2018-07-28T01:27:55.500Z,94.48
2018-07-28T01:28:55.493Z,94.44
2018-07-28T01:29:55.480Z,95.59
2018-07-28T01:30:55.471Z,95.50
2018-07-28T01:31:55.456Z,95.21
2018-07-28T01:32:55.443Z,95.21
2018-07-28T01:33:55.433Z,95.50
2018-07-28T01:34:55.423Z,95.21
2018-07-28T01:35:55.407Z,95.31
2018-07-28T01:36:55.400Z,95.89
2018-07-28T01:37:55.390Z,95.69
2018-07-28T01:38:55.376Z,95.69
2018-07-28T01:39:55.364Z,96.12
2018-07-28T01:40:55.350Z,96.99
2018-07-28T01:41:55.337Z,96.80
2018-07-28T01:42:55.326Z,97.19
2018-07-28T01:43:55.316Z,96.61
2018-07-28T01:44:55.305Z,97.04
2018-07-28T01:45:55.297Z,96.61
2018-07-28T01:46:55.284Z,97.19
2018-07-28T01:47:55.270Z,96.42
2018-07-28T01:48:55.258Z,96.75
2018-07-28T01:49:55.245Z,96.32
2018-07-28T01:50:55.234Z,96.27
2018-07-28T01:51:55.222Z,96.56
2018-07-28T01:52:55.212Z,96.56
2018-07-28T01:53:55.199Z,96.37
2018-07-28T01:54:55.187Z,96.37
2018-07-28T01:55:55.175Z,96.94
2018-07-28T01:56:55.173Z,97.14
2018-07-28T01:57:55.150Z,97.24
2018-07-28T01:58:55.139Z,96.17
2018-07-28T01:59:55.130Z,96.56
2018-07-28T02:00:55.118Z,96.85
2018-07-28T02:01:55.103Z,96.70
2018-07-28T02:02:55.092Z,97.04
2018-07-28T02:03:55.082Z,96.99
2018-07-28T02:04:55.070Z,96.85
2018-07-28T02:05:55.057Z,96.80
2018-07-28T02:06:55.047Z,96.37
2018-07-28T02:07:55.037Z,95.16
2018-07-28T02:08:55.022Z,95.98
2018-07-28T02:09:55.014Z,95.89
2018-07-28T02:10:55.011Z,96.27
2018-07-28T02:11:54.989Z,96.37
2018-07-28T02:12:54.975Z,95.79
2018-07-28T02:13:54.965Z,95.79
2018-07-28T02:14:54.952Z,95.98
2018-07-28T02:15:54.942Z,96.27
2018-07-28T02:16:54.928Z,96.27
2018-07-28T02:17:54.919Z,95.50
2018-07-28T02:18:54.905Z,96.17
2018-07-28T02:19:54.895Z,95.89
2018-07-28T02:20:54.884Z,95.98
2018-07-28T02:21:54.870Z,96.08
2018-07-28T02:22:54.859Z,96.46
2018-07-28T02:23:54.848Z,95.79
2018-07-28T02:24:54.837Z,95.84
2018-07-28T02:25:54.822Z,95.79
2018-07-28T02:26:54.811Z,95.74
2018-07-28T02:27:54.799Z,96.70
2018-07-28T02:28:54.835Z,96.80
2018-07-28T02:29:54.776Z,96.70
2018-07-28T02:30:54.765Z,97.38
2018-07-28T02:31:54.755Z,97.09
2018-07-28T02:32:54.741Z,97.38
2018-07-28T02:33:54.727Z,97.57
2018-07-28T02:34:54.715Z,97.47
2018-07-28T02:35:54.704Z,97.19
2018-07-28T02:36:54.691Z,98.05
2018-07-28T02:37:54.683Z,98.24
2018-07-28T02:38:54.671Z,97.67
2018-07-28T02:39:54.657Z,97.57
2018-07-28T02:40:54.645Z,97.57
2018-07-28T02:41:54.635Z,97.19
2018-07-28T02:42:54.629Z,96.80
2018-07-28T02:43:54.608Z,96.32
2018-07-28T02:44:54.598Z,96.03
2018-07-28T02:45:54.587Z,96.61
2018-07-28T02:46:54.575Z,96.70
2018-07-28T02:47:54.563Z,97.19
2018-07-28T02:48:54.551Z,96.99
2018-07-28T02:49:54.553Z,96.99
2018-07-28T02:50:54.527Z,97.38
2018-07-28T02:51:54.515Z,97.76
2018-07-28T02:52:54.504Z,97.19
2018-07-28T02:53:54.489Z,97.86
2018-07-28T02:54:54.481Z,97.47
2018-07-28T02:55:54.470Z,98.34
2018-07-28T02:56:54.462Z,98.44
2018-07-28T02:57:54.443Z,97.57
2018-07-28T02:58:54.430Z,97.96
2018-07-28T02:59:54.420Z,97.57
2018-07-28T03:00:54.408Z,97.67
2018-07-28T03:01:54.395Z,97.57
2018-07-28T03:02:54.385Z,98.44
2018-07-28T03:03:54.373Z,98.34
2018-07-28T03:04:54.360Z,99.11
2018-07-28T03:05:54.348Z,98.54
2018-07-28T03:06:54.337Z,98.68
2018-07-28T03:07:54.324Z,98.58
2018-07-28T03:08:54.313Z,98.05
2018-07-28T03:09:54.300Z,98.10
2018-07-28T03:10:54.287Z,98.29
2018-07-28T03:11:54.276Z,98.87
2018-07-28T03:12:54.263Z,99.64
2018-07-28T03:13:54.249Z,99.44
2018-07-28T03:14:54.239Z,98.39
2018-07-28T03:15:54.232Z,99.06
2018-07-28T03:16:54.215Z,99.40
2018-07-28T03:17:54.213Z,99.11
2018-07-28T03:18:54.191Z,98.05
2018-07-28T03:19:54.181Z,99.11
2018-07-28T03:20:54.176Z,98.82
2018-07-28T03:21:54.161Z,97.76
2018-07-28T03:22:54.143Z,97.67
2018-07-28T03:23:54.131Z,96.70
2018-07-28T03:24:54.120Z,97.57
2018-07-28T03:25:54.108Z,96.61
2018-07-28T03:26:54.096Z,96.32
2018-07-28T03:27:54.083Z,96.80
2018-07-28T03:28:54.072Z,96.32
2018-07-28T03:29:54.057Z,96.70
2018-07-28T03:30:54.045Z,96.61
2018-07-28T03:31:54.033Z,97.86
2018-07-28T03:32:54.027Z,97.76
2018-07-28T03:33:54.011Z,97.76
2018-07-28T03:34:54.003Z,97.57
2018-07-28T03:35:53.985Z,96.70
2018-07-28T03:36:53.974Z,97.19
2018-07-28T03:37:53.960Z,97.47
2018-07-28T03:38:53.948Z,97.76
2018-07-28T03:39:53.938Z,97.19
2018-07-28T03:40:53.926Z,97.67
2018-07-28T03:41:53.913Z,97.38
2018-07-28T03:42:53.902Z,97.86
2018-07-28T03:43:53.892Z,97.57
2018-07-28T03:44:53.876Z,97.47
2018-07-28T03:45:53.866Z,97.28
2018-07-28T03:46:53.852Z,97.96
2018-07-28T03:47:53.840Z,97.86
2018-07-28T03:48:53.829Z,97.57
2018-07-28T03:49:53.822Z,97.19
2018-07-28T03:50:53.804Z,96.89
2018-07-28T03:51:53.795Z,97.28
2018-07-28T03:52:53.784Z,97.47
2018-07-28T03:53:53.766Z,97.09
2018-07-28T03:54:53.756Z,96.70
2018-07-28T03:55:53.745Z,96.12
2018-07-28T03:56:53.731Z,96.89
2018-07-28T03:57:53.718Z,96.80
2018-07-28T03:58:53.706Z,96.80
2018-07-28T03:59:53.695Z,95.74
2018-07-28T04:00:53.687Z,95.74
2018-07-28T04:01:53.672Z,95.84
2018-07-28T04:02:53.659Z,97.09
2018-07-28T04:03:53.646Z,96.99
2018-07-28T04:04:53.633Z,97.38
2018-07-28T04:05:53.621Z,97.57
2018-07-28T04:06:53.614Z,98.05
2018-07-28T04:07:53.597Z,97.38
2018-07-28T04:08:53.585Z,96.42
2018-07-28T04:09:53.571Z,96.42
2018-07-28T04:10:53.562Z,97.28
2018-07-28T04:11:53.551Z,97.09
2018-07-28T04:12:53.537Z,97.86
2018-07-28T04:13:53.524Z,98.15
2018-07-28T04:14:53.513Z,97.47
2018-07-28T04:15:53.502Z,97.76
2018-07-28T04:16:53.492Z,98.05
2018-07-28T04:17:53.476Z,98.44
2018-07-28T04:18:53.469Z,98.24
2018-07-28T04:19:53.452Z,98.05
2018-07-28T04:20:53.442Z,99.21
2018-07-28T04:21:53.428Z,99.11
2018-07-28T04:22:53.415Z,98.92
2018-07-28T04:23:53.404Z,99.02
2018-07-28T04:24:53.396Z,99.02
2018-07-28T04:25:53.381Z,99.21
2018-07-28T04:26:53.366Z,99.50
2018-07-28T04:27:53.357Z,99.40
2018-07-28T04:28:53.348Z,99.88
2018-07-28T04:29:53.334Z,99.02
2018-07-28T04:30:53.318Z,99.11
2018-07-28T04:31:53.307Z,99.21
2018-07-28T04:32:53.296Z,99.99
2018-07-28T04:33:53.281Z,99.59
2018-07-28T04:34:53.269Z,99.59
2018-07-28T04:35:53.259Z,99.30
2018-07-28T04:36:53.251Z,99.69
2018-07-28T04:37:53.238Z,99.99
2018-07-28T04:38:53.222Z,99.99
2018-07-28T04:39:53.210Z,99.11
2018-07-28T04:40:53.198Z,99.69
2018-07-28T04:41:53.185Z,99.99
2018-07-28T04:42:53.175Z,99.99
2018-07-28T04:43:53.189Z,99.99
2018-07-28T04:44:53.151Z,99.99
2018-07-28T04:45:53.138Z,99.99
2018-07-28T04:46:53.175Z,99.99
2018-07-28T04:47:53.115Z,99.99
2018-07-28T04:48:53.105Z,99.99
2018-07-28T04:49:53.090Z,99.99
2018-07-28T04:50:53.079Z,99.99
2018-07-28T04:51:53.073Z,99.99
2018-07-28T04:52:53.056Z,99.99
2018-07-28T04:53:53.043Z,99.99
2018-07-28T04:54:53.029Z,99.99
2018-07-28T04:55:53.018Z,99.99
2018-07-28T04:56:53.010Z,99.99
2018-07-28T04:57:52.994Z,99.99
2018-07-28T04:58:52.989Z,99.99
2018-07-28T04:59:52.969Z,99.99
2018-07-28T05:00:52.959Z,99.99
2018-07-28T05:01:52.945Z,99.99
2018-07-28T05:02:52.931Z,99.99
2018-07-28T05:03:52.921Z,99.99
2018-07-28T05:04:52.911Z,99.99
2018-07-28T05:05:52.896Z,99.99
2018-07-28T05:06:52.885Z,99.99
2018-07-28T05:07:52.875Z,99.99
2018-07-28T05:08:52.863Z,99.99
2018-07-28T05:09:52.851Z,99.99
2018-07-28T05:10:52.840Z,99.99
2018-07-28T05:11:52.826Z,99.99
2018-07-28T05:12:52.812Z,99.99
2018-07-28T05:13:52.799Z,99.99
2018-07-28T05:14:52.790Z,99.99
2018-07-28T05:15:52.780Z,99.99
2018-07-28T05:16:52.765Z,99.99
2018-07-28T05:17:52.755Z,99.99
2018-07-28T05:18:52.739Z,99.99
2018-07-28T05:19:52.726Z,99.99
2018-07-28T05:20:52.719Z,99.99
2018-07-28T05:21:52.701Z,99.99
2018-07-28T05:22:52.690Z,99.99
2018-07-28T05:23:52.770Z,99.69
2018-07-28T05:24:52.668Z,99.69
2018-07-28T05:25:52.655Z,99.02
2018-07-28T05:26:52.642Z,98.92
2018-07-28T05:27:52.634Z,99.11
2018-07-28T05:28:52.619Z,99.21
2018-07-28T05:29:52.610Z,99.40
2018-07-28T05:30:52.595Z,98.92
2018-07-28T05:31:52.585Z,98.63
2018-07-28T05:32:52.570Z,98.92
2018-07-28T05:33:52.561Z,98.54
2018-07-28T05:34:52.547Z,98.82
2018-07-28T05:35:52.539Z,98.05
2018-07-28T05:36:52.524Z,98.49
2018-07-28T05:37:52.510Z,99.55
2018-07-28T05:38:52.523Z,98.49
2018-07-28T05:39:52.487Z,98.58
2018-07-28T05:40:52.475Z,98.68
2018-07-28T05:41:52.463Z,98.49
2018-07-28T05:42:52.456Z,98.29
2018-07-28T05:43:52.440Z,97.81
2018-07-28T05:44:52.429Z,97.62
2018-07-28T05:45:52.417Z,97.72
2018-07-28T05:46:52.404Z,97.14
2018-07-28T05:47:52.394Z,97.04
2018-07-28T05:48:52.380Z,96.41
2018-07-28T05:49:52.370Z,96.22
2018-07-28T05:50:52.358Z,96.12
2018-07-28T05:51:52.346Z,96.12
2018-07-28T05:52:52.333Z,96.31
2018-07-28T05:53:52.319Z,95.64
2018-07-28T05:54:52.309Z,95.35
2018-07-28T05:55:52.298Z,95.64
2018-07-28T05:56:52.289Z,95.45
2018-07-28T05:57:52.274Z,95.93
2018-07-28T05:58:52.263Z,95.25
2018-07-28T05:59:52.250Z,95.74
2018-07-28T06:00:52.244Z,95.83
2018-07-28T06:01:52.235Z,96.41
2018-07-28T06:02:52.250Z,95.06
2018-07-28T06:03:52.204Z,95.50
2018-07-28T06:04:52.194Z,95.30
2018-07-28T06:05:52.180Z,95.78
2018-07-28T06:06:52.168Z,95.40
2018-07-28T06:07:52.156Z,95.50
2018-07-28T06:08:52.147Z,95.01
2018-07-28T06:09:52.134Z,94.14
2018-07-28T06:10:52.164Z,94.77
2018-07-28T06:11:52.118Z,94.53
2018-07-28T06:12:52.102Z,94.19
2018-07-28T06:13:52.089Z,93.51
2018-07-28T06:14:52.076Z,92.93
2018-07-28T06:15:52.064Z,93.90
2018-07-28T06:16:52.052Z,93.99
2018-07-28T06:17:52.040Z,92.74
2018-07-28T06:18:52.030Z,92.25
2018-07-28T06:19:52.017Z,91.97
2018-07-28T06:20:52.009Z,92.16
2018-07-28T06:21:52.050Z,92.07
2018-07-28T06:22:51.983Z,90.85
2018-07-28T06:23:51.979Z,91.05
2018-07-28T06:24:51.961Z,91.24
2018-07-28T06:25:51.998Z,90.47
2018-07-28T06:26:51.941Z,91.43
2018-07-28T06:27:51.958Z,92.30
2018-07-28T06:28:51.916Z,91.43
2018-07-28T06:29:51.905Z,90.22
2018-07-28T06:30:51.893Z,90.51
2018-07-28T06:31:51.952Z,90.12
2018-07-28T06:32:51.872Z,88.87
2018-07-28T06:33:51.860Z,88.29
2018-07-28T06:34:51.860Z,87.90
2018-07-28T06:35:51.838Z,88.39
2018-07-28T06:36:51.827Z,88.67
2018-07-28T06:37:51.816Z,88.87
2018-07-28T06:38:51.803Z,88.13
2018-07-28T06:39:51.802Z,88.04
2018-07-28T06:40:51.783Z,88.33
2018-07-28T06:41:51.773Z,87.36
2018-07-28T06:42:51.764Z,86.01
2018-07-28T06:43:51.750Z,85.82
2018-07-28T06:44:51.737Z,84.89
2018-07-28T06:45:51.727Z,85.47
2018-07-28T06:46:51.716Z,84.60
2018-07-28T06:47:51.707Z,85.86
2018-07-28T06:48:51.696Z,85.86
2018-07-28T06:49:51.682Z,85.57
2018-07-28T06:50:51.674Z,85.18
2018-07-28T06:51:51.666Z,85.13
2018-07-28T06:52:51.661Z,84.16
2018-07-28T06:53:51.642Z,84.45
2018-07-28T06:54:51.630Z,83.67
2018-07-28T06:55:51.622Z,83.96
2018-07-28T06:56:51.611Z,82.84
2018-07-28T06:57:51.598Z,81.77
2018-07-28T06:58:51.590Z,81.20
2018-07-28T06:59:51.580Z,80.52
2018-07-28T07:00:51.576Z,81.00
2018-07-28T07:01:51.559Z,80.80
2018-07-28T07:02:51.547Z,80.80
2018-07-28T07:03:51.546Z,82.98
2018-07-28T07:04:51.596Z,81.52
2018-07-28T07:05:51.516Z,83.85
2018-07-28T07:06:51.506Z,82.88
2018-07-28T07:07:51.495Z,80.94
2018-07-28T07:08:51.490Z,79.68
2018-07-28T07:09:51.483Z,79.30
2018-07-28T07:10:51.471Z,80.01
2018-07-28T07:11:51.460Z,79.72
2018-07-28T07:12:51.448Z,78.27
2018-07-28T07:13:51.435Z,79.24
2018-07-28T07:14:51.424Z,79.04
2018-07-28T07:15:51.416Z,78.66
2018-07-28T07:16:51.413Z,77.14
2018-07-28T07:17:51.396Z,76.56
2018-07-28T07:18:51.395Z,77.53
2018-07-28T07:19:51.376Z,75.34
2018-07-28T07:20:51.368Z,75.98
2018-07-28T07:21:51.367Z,75.82
2018-07-28T07:22:51.351Z,75.14
2018-07-28T07:23:51.346Z,75.14
2018-07-28T07:24:51.383Z,74.46
2018-07-28T07:25:51.321Z,73.88
2018-07-28T07:26:51.312Z,73.49
2018-07-28T07:27:51.300Z,74.37
2018-07-28T07:28:51.291Z,74.60
2018-07-28T07:29:51.284Z,74.50
2018-07-28T07:30:51.271Z,74.01
2018-07-28T07:31:51.266Z,73.33
2018-07-28T07:32:51.253Z,72.55
2018-07-28T07:33:51.252Z,73.56
2018-07-28T07:34:51.236Z,74.24
2018-07-28T07:35:51.225Z,74.63
2018-07-28T07:36:51.217Z,74.08
2018-07-28T07:37:51.206Z,73.89
2018-07-28T07:38:51.197Z,73.40
2018-07-28T07:39:51.192Z,73.02
2018-07-28T07:40:51.187Z,71.01
2018-07-28T07:41:51.174Z,71.01
2018-07-28T07:42:51.164Z,72.21
2018-07-28T07:43:51.155Z,70.26
2018-07-28T07:44:51.146Z,70.20
2018-07-28T07:45:51.137Z,68.38
2018-07-28T07:46:51.128Z,66.66
2018-07-28T07:47:51.128Z,65.14
2018-07-28T07:48:51.118Z,63.41
2018-07-28T07:49:51.103Z,62.21
2018-07-28T07:50:51.095Z,60.28
2018-07-28T07:51:51.086Z,59.04
2018-07-28T07:52:51.078Z,58.38
2018-07-28T07:53:51.135Z,57.53
2018-07-28T07:54:51.061Z,56.46
2018-07-28T07:55:51.056Z,55.96
2018-07-28T07:56:51.045Z,57.76
2018-07-28T07:57:51.038Z,55.92
2018-07-28T07:58:51.029Z,53.59
2018-07-28T07:59:51.023Z,53.72
2018-07-28T08:00:51.016Z,53.63
2018-07-28T08:01:51.007Z,52.33
2018-07-28T08:02:50.999Z,52.52
2018-07-28T08:03:50.994Z,52.91
2018-07-28T08:04:51.030Z,53.69
2018-07-28T08:05:50.980Z,53.59
2018-07-28T08:06:50.975Z,52.42
2018-07-28T08:07:50.971Z,53.11
2018-07-28T08:08:50.963Z,52.59
2018-07-28T08:09:50.955Z,54.28
2018-07-28T08:10:50.950Z,52.79
2018-07-28T08:11:50.945Z,52.62
2018-07-28T08:12:50.944Z,52.62
2018-07-28T08:13:50.939Z,53.01
2018-07-28T08:14:50.931Z,51.76
2018-07-28T08:15:50.926Z,51.86
2018-07-28T08:16:50.929Z,50.22
2018-07-28T08:17:50.922Z,50.90
2018-07-28T08:18:50.906Z,50.02
2018-07-28T08:19:50.906Z,49.33
2018-07-28T08:20:50.943Z,49.85
2018-07-28T08:21:50.893Z,52.35
2018-07-28T08:22:50.896Z,53.77
2018-07-28T08:23:50.885Z,53.74
2018-07-28T08:24:50.887Z,56.58
2018-07-28T08:25:50.873Z,54.52
2018-07-28T08:26:50.961Z,56.26
2018-07-28T08:27:50.864Z,56.65
2018-07-28T08:28:50.863Z,55.55
2018-07-28T08:29:50.849Z,56.62
2018-07-28T08:30:50.847Z,57.38
2018-07-28T08:31:50.844Z,59.14
2018-07-28T08:32:50.837Z,58.55
2018-07-28T08:33:50.834Z,58.38
2018-07-28T08:34:50.824Z,58.65
2018-07-28T08:35:50.822Z,58.55
2018-07-28T08:36:50.817Z,57.77
2018-07-28T08:37:50.817Z,58.84
2018-07-28T08:38:50.805Z,58.55
2018-07-28T08:39:50.846Z,57.64
2018-07-28T08:40:50.793Z,57.45
2018-07-28T08:41:50.787Z,57.32
2018-07-28T08:42:50.776Z,57.91
2018-07-28T08:43:50.774Z,59.50
2018-07-28T08:44:50.773Z,59.69
2018-07-28T08:45:50.758Z,58.42
2018-07-28T08:46:50.755Z,57.93
2018-07-28T08:47:50.747Z,58.50
2018-07-28T08:48:50.818Z,58.69
2018-07-28T08:49:50.739Z,59.38
2018-07-28T08:50:50.726Z,59.47
2018-07-28T08:51:50.723Z,58.40
2018-07-28T08:52:50.713Z,59.79
2018-07-28T08:53:50.711Z,60.74
2018-07-28T08:54:50.711Z,59.38
2018-07-28T08:55:50.702Z,59.18
2018-07-28T08:56:50.688Z,59.79
2018-07-28T08:57:50.682Z,59.20
2018-07-28T08:58:50.676Z,59.50
2018-07-28T08:59:50.676Z,58.33
2018-07-28T09:00:50.663Z,58.52
2018-07-28T09:01:50.661Z,58.42
2018-07-28T09:02:50.646Z,59.79
2018-07-28T09:03:50.640Z,59.89
2018-07-28T09:04:50.634Z,59.20
2018-07-28T09:05:50.680Z,58.45
2018-07-28T09:06:50.619Z,55.59
2018-07-28T09:07:50.617Z,58.72
2018-07-28T09:08:50.614Z,55.69
2018-07-28T09:09:50.598Z,56.47
2018-07-28T09:10:50.593Z,57.84
2018-07-28T09:11:50.587Z,59.50
2018-07-28T09:12:50.580Z,57.45
2018-07-28T09:13:50.570Z,60.18
2018-07-28T09:14:50.567Z,58.91
2018-07-28T09:15:50.563Z,58.81
2018-07-28T09:16:50.554Z,58.59
2018-07-28T09:17:50.590Z,59.30
2018-07-28T09:18:50.535Z,58.62
2018-07-28T09:19:50.530Z,59.30
2018-07-28T09:20:50.523Z,58.13
2018-07-28T09:21:50.519Z,58.52
2018-07-28T09:22:50.510Z,56.76
2018-07-28T09:23:50.503Z,56.57
2018-07-28T09:24:50.499Z,57.15
2018-07-28T09:25:50.486Z,57.45
2018-07-28T09:26:50.478Z,56.35
2018-07-28T09:27:50.477Z,57.25
2018-07-28T09:28:50.467Z,56.35
2018-07-28T09:29:50.459Z,57.32
2018-07-28T09:30:50.453Z,57.91
2018-07-28T09:31:50.442Z,56.84
2018-07-28T09:32:50.439Z,56.45
2018-07-28T09:33:50.429Z,56.15
2018-07-28T09:34:50.419Z,58.50
2018-07-28T09:35:50.415Z,58.30
2018-07-28T09:36:50.423Z,59.86
2018-07-28T09:37:50.403Z,57.23
2018-07-28T09:38:50.401Z,57.52
2018-07-28T09:39:50.385Z,58.98
2018-07-28T09:40:50.384Z,56.54
2018-07-28T09:41:50.369Z,56.25
2018-07-28T09:42:50.368Z,56.35
2018-07-28T09:43:50.355Z,57.32
2018-07-28T09:44:50.348Z,56.35
2018-07-28T09:45:50.342Z,55.66
2018-07-28T09:46:50.345Z,58.01
2018-07-28T09:47:50.329Z,57.42
2018-07-28T09:48:50.321Z,58.13
2018-07-28T09:49:50.313Z,57.25
2018-07-28T09:50:50.302Z,58.13
2018-07-28T09:51:50.294Z,55.00
2018-07-28T09:52:50.292Z,57.25
2018-07-28T09:53:50.292Z,57.28
2018-07-28T09:54:50.273Z,56.99
2018-07-28T09:55:50.268Z,56.70
2018-07-28T09:56:50.263Z,56.79
2018-07-28T09:57:50.254Z,56.79
2018-07-28T09:58:50.248Z,58.84
2018-07-28T09:59:50.235Z,58.26
2018-07-28T10:00:50.231Z,57.57
2018-07-28T10:01:50.220Z,55.91
2018-07-28T10:03:50.206Z,56.92
2018-07-28T10:04:50.198Z,54.96
2018-07-28T10:05:50.193Z,54.57
2018-07-28T10:06:50.183Z,54.38
2018-07-28T10:07:50.178Z,53.66
2018-07-28T10:08:50.180Z,54.35
2018-07-28T10:09:50.168Z,54.74
2018-07-28T10:10:50.160Z,55.71
2018-07-28T10:11:50.150Z,55.81
2018-07-28T10:12:50.144Z,54.83
2018-07-28T10:13:50.139Z,54.35
2018-07-28T10:14:50.134Z,56.70
2018-07-28T10:15:50.126Z,56.52
2018-07-28T10:16:50.118Z,54.47
2018-07-28T10:17:50.113Z,56.92
2018-07-28T10:18:50.105Z,54.86
2018-07-28T10:19:50.104Z,54.08
2018-07-28T10:20:50.098Z,53.59
2018-07-28T10:21:50.088Z,55.06
2018-07-28T10:22:50.132Z,55.22
2018-07-28T10:23:50.082Z,55.74
2018-07-28T10:24:50.073Z,53.88
2018-07-28T10:25:50.066Z,56.33
2018-07-28T10:26:50.058Z,54.57
2018-07-28T10:27:50.053Z,55.26
2018-07-28T10:28:50.049Z,54.21
2018-07-28T10:29:50.040Z,54.60
2018-07-28T10:30:50.034Z,57.63
2018-07-28T10:31:50.030Z,57.66
2018-07-28T10:32:50.023Z,58.34
2018-07-28T10:33:50.018Z,57.26
2018-07-28T10:34:50.041Z,55.43
2018-07-28T10:35:50.004Z,51.71
2018-07-28T10:36:50.001Z,52.69
2018-07-28T10:37:50.003Z,52.10
2018-07-28T10:38:49.989Z,51.22
2018-07-28T10:39:49.985Z,57.00
2018-07-28T10:40:49.977Z,52.79
2018-07-28T10:41:49.972Z,51.42
2018-07-28T10:42:49.967Z,50.73
2018-07-28T10:43:49.964Z,49.46
2018-07-28T10:44:49.955Z,50.15
2018-07-28T10:45:49.954Z,49.43
2018-07-28T10:46:49.943Z,52.56
2018-07-28T10:47:49.938Z,54.65
2018-07-28T10:48:49.933Z,51.81
2018-07-28T10:49:49.928Z,49.85
2018-07-28T10:50:49.923Z,49.95
2018-07-28T10:51:49.944Z,50.24
2018-07-28T10:52:49.916Z,49.07
2018-07-28T10:53:49.910Z,49.26
2018-07-28T10:54:49.902Z,50.63
2018-07-28T10:55:49.898Z,49.46
2018-07-28T10:56:49.892Z,49.95
2018-07-28T10:57:49.885Z,50.63
2018-07-28T10:58:49.895Z,49.36
2018-07-28T10:59:49.873Z,49.73
2018-07-28T11:00:49.870Z,52.76
2018-07-28T11:01:49.871Z,53.67
2018-07-28T11:02:49.866Z,53.38
2018-07-28T11:03:49.854Z,52.81
2018-07-28T11:04:49.847Z,49.19
2018-07-28T11:05:49.843Z,48.30
2018-07-28T11:06:49.840Z,48.01
2018-07-28T11:07:49.835Z,47.23
2018-07-28T11:08:49.828Z,48.99
2018-07-28T11:09:49.822Z,49.58
2018-07-28T11:10:49.819Z,49.29
2018-07-28T11:11:49.817Z,47.52
2018-07-28T11:12:49.807Z,49.38
2018-07-28T11:13:49.802Z,47.23
2018-07-28T11:14:49.799Z,49.29
2018-07-28T11:15:49.796Z,49.29
2018-07-28T11:16:49.789Z,49.58
2018-07-28T11:17:49.791Z,46.27
2018-07-28T11:18:49.786Z,46.94
2018-07-28T11:19:49.776Z,46.54
2018-07-28T11:20:49.810Z,46.44
2018-07-28T11:21:49.764Z,47.84
2018-07-28T11:22:49.757Z,47.74
2018-07-28T11:23:49.753Z,48.33
2018-07-28T11:24:49.748Z,47.72
2018-07-28T11:25:49.771Z,49.29
2018-07-28T11:26:49.740Z,50.49
2018-07-28T11:27:49.733Z,50.39
2018-07-28T11:28:49.729Z,48.35
2018-07-28T11:29:49.723Z,46.69
2018-07-28T11:30:49.716Z,46.00
2018-07-28T11:31:49.719Z,44.23
2018-07-28T11:32:49.712Z,45.90
2018-07-28T11:33:49.706Z,47.27
2018-07-28T11:34:49.700Z,44.73
2018-07-28T11:35:49.698Z,45.09
2018-07-28T11:36:49.689Z,44.80
2018-07-28T11:37:49.731Z,44.12
2018-07-28T11:38:49.679Z,45.00
2018-07-28T11:39:49.677Z,45.49
2018-07-28T11:40:49.673Z,45.00
2018-07-28T11:41:49.669Z,44.31
2018-07-28T11:42:49.660Z,44.12
2018-07-28T11:43:49.656Z,44.02
2018-07-28T11:44:49.656Z,43.90
2018-07-28T11:45:49.705Z,46.44
2018-07-28T11:46:49.641Z,45.47
2018-07-28T11:47:49.635Z,47.52
2018-07-28T11:48:49.640Z,45.47
2018-07-28T11:49:49.629Z,47.16
2018-07-28T11:50:49.628Z,47.45
2018-07-28T11:51:49.619Z,45.98
2018-07-28T11:52:49.615Z,46.08
2018-07-28T11:53:49.609Z,44.80
2018-07-28T11:54:49.608Z,45.39
2018-07-28T11:55:49.600Z,44.31
2018-07-28T11:56:49.595Z,43.72
2018-07-28T11:57:49.593Z,45.19
2018-07-28T11:58:49.588Z,47.25
2018-07-28T11:59:49.582Z,46.56
2018-07-28T12:00:49.575Z,45.88
2018-07-28T12:01:49.637Z,44.88
2018-07-28T12:02:49.588Z,45.27
2018-07-28T12:03:49.563Z,45.76
2018-07-28T12:04:49.555Z,45.37
2018-07-28T12:05:49.551Z,46.34
2018-07-28T12:06:49.545Z,47.42
2018-07-28T12:07:49.543Z,47.23
2018-07-28T12:08:49.538Z,46.25
2018-07-28T12:09:49.532Z,44.48
2018-07-28T12:10:49.531Z,44.68
2018-07-28T12:11:49.525Z,45.49
2018-07-28T12:12:49.519Z,44.90
2018-07-28T12:13:49.513Z,46.27
2018-07-28T12:14:49.508Z,44.21
2018-07-28T12:15:49.504Z,43.43
2018-07-28T12:16:49.499Z,43.82
2018-07-28T12:17:49.494Z,43.43
2018-07-28T12:18:49.492Z,43.65
2018-07-28T12:19:49.534Z,42.35
2018-07-28T12:20:49.481Z,42.05
2018-07-28T12:21:49.475Z,43.92
2018-07-28T12:22:49.474Z,44.90
2018-07-28T12:23:49.515Z,46.27
2018-07-28T12:24:49.463Z,47.37
2018-07-28T12:25:49.467Z,45.51
2018-07-28T12:26:49.453Z,46.41
2018-07-28T12:27:49.452Z,45.16
2018-07-28T12:28:49.447Z,45.95
2018-07-28T12:29:49.441Z,46.66
2018-07-28T12:30:49.434Z,46.46
2018-07-28T12:31:49.431Z,45.28
2018-07-28T12:32:49.427Z,47.44
2018-07-28T12:33:49.422Z,44.71
2018-07-28T12:34:49.448Z,45.01
2018-07-28T12:35:49.415Z,46.90
2018-07-28T12:36:49.410Z,44.24
2018-07-28T12:37:49.408Z,43.36
2018-07-28T12:38:49.402Z,41.88
2018-07-28T12:39:49.403Z,44.66
2018-07-28T12:40:49.395Z,42.89
2018-07-28T12:41:49.391Z,43.99
2018-07-28T12:42:49.389Z,44.09
2018-07-28T12:43:49.383Z,42.71
2018-07-28T12:44:49.379Z,44.11
2018-07-28T12:45:49.375Z,46.99
2018-07-28T12:46:49.371Z,41.38
2018-07-28T12:47:49.367Z,42.55
2018-07-28T12:48:49.363Z,43.44
2018-07-28T12:49:49.358Z,42.85
2018-07-28T12:50:49.360Z,45.41
2018-07-28T12:51:49.351Z,43.46
2018-07-28T12:52:49.348Z,45.43
2018-07-28T12:53:49.346Z,43.76
2018-07-28T12:54:49.339Z,43.44
2018-07-28T12:55:49.337Z,42.08